createdAt,value
2019-05-12T00:03:01.190Z,8
2019-05-12T00:08:03.706Z,6
2019-05-12T00:13:08.289Z,10
2019-05-12T00:23:23.680Z,6
2019-05-12T00:28:13.367Z,5
2019-05-12T00:33:17.895Z,6
2019-05-12T00:38:18.265Z,4
2019-05-12T00:43:20.671Z,4
2019-05-12T00:48:23.134Z,5
2019-05-12T00:53:36.950Z,6
2019-05-12T00:58:28.025Z,5
2019-05-12T01:03:30.467Z,6
2019-05-12T01:08:32.914Z,5
2019-05-12T01:13:35.362Z,6
2019-05-12T01:23:53.622Z,3
2019-05-12T01:28:42.720Z,6
2019-05-12T01:33:45.241Z,7
2019-05-12T01:38:48.245Z,6
2019-05-12T01:43:49.960Z,6
2019-05-12T01:48:52.615Z,7
2019-05-12T01:54:08.478Z,6
2019-05-12T01:58:57.824Z,6
2019-05-12T02:03:59.711Z,8
2019-05-12T02:09:02.211Z,5
2019-05-12T02:14:04.639Z,3
2019-05-12T02:19:08.959Z,5
2019-05-12T02:24:23.215Z,6
2019-05-12T02:29:11.921Z,3
2019-05-12T02:34:15.593Z,3
2019-05-12T02:39:16.867Z,5
2019-05-12T02:44:19.262Z,5
2019-05-12T02:49:24.383Z,6
2019-05-12T02:54:25.241Z,4
2019-05-12T02:59:26.678Z,6
2019-05-12T03:04:28.989Z,7
2019-05-12T03:09:34.710Z,9
2019-05-12T03:14:39.983Z,6
2019-05-12T03:19:36.322Z,5
2019-05-12T03:24:38.740Z,6
2019-05-12T03:34:47.252Z,4
2019-05-12T03:39:47.069Z,4
2019-05-12T03:44:48.578Z,5
2019-05-12T03:49:54.092Z,5
2019-05-12T03:54:55.948Z,5
2019-05-12T03:59:55.866Z,5
2019-05-12T04:04:58.261Z,5
2019-05-12T04:10:00.808Z,4
2019-05-12T04:15:05.026Z,4
2019-05-12T04:20:05.599Z,5
2019-05-12T04:25:08.129Z,9
2019-05-12T04:30:10.660Z,5
2019-05-12T04:35:14.764Z,4
2019-05-12T04:40:16.385Z,5
2019-05-12T04:45:17.815Z,4
2019-05-12T04:50:20.270Z,8
2019-05-12T04:55:25.532Z,4
2019-05-12T05:00:25.813Z,5
2019-05-12T05:05:27.561Z,6
2019-05-12T05:10:30.046Z,7
2019-05-12T05:15:34.652Z,7
2019-05-12T05:20:34.950Z,4
2019-05-12T05:25:37.375Z,6
2019-05-12T05:30:39.858Z,6
2019-05-12T05:35:43.525Z,5
2019-05-12T05:40:44.639Z,10
2019-05-12T05:45:47.128Z,6
2019-05-12T05:50:49.556Z,7
2019-05-12T05:55:56.102Z,9
2019-05-12T06:01:02.832Z,8
2019-05-12T06:06:01.309Z,8
2019-05-12T06:10:59.279Z,8
2019-05-12T06:16:04.164Z,8
2019-05-12T06:21:04.159Z,9
2019-05-12T06:26:06.812Z,9
2019-05-12T06:31:09.049Z,11
2019-05-12T06:36:13.560Z,8
2019-05-12T06:41:20.425Z,9
2019-05-12T06:46:20.620Z,10
2019-05-12T06:51:22.883Z,7
2019-05-12T06:56:23.446Z,10
2019-05-12T07:01:24.250Z,12
2019-05-12T07:06:26.143Z,11
2019-05-12T07:11:41.465Z,10
2019-05-12T07:16:31.021Z,9
2019-05-12T07:21:33.678Z,8
2019-05-12T07:26:35.884Z,12
2019-05-12T07:31:38.331Z,12
2019-05-12T07:36:40.747Z,10
2019-05-12T07:41:50.696Z,12
2019-05-12T07:46:49.307Z,11
2019-05-12T07:51:49.998Z,11
2019-05-12T07:56:50.562Z,13
2019-05-12T08:01:54.934Z,10
2019-05-12T08:06:55.471Z,14
2019-05-12T08:11:57.843Z,13
2019-05-12T08:17:01.777Z,11
2019-05-12T08:22:04.244Z,10
2019-05-12T08:27:06.324Z,10
2019-05-12T08:32:09.760Z,11
2019-05-12T08:37:10.531Z,10
2019-05-12T08:42:14.472Z,13
2019-05-12T08:47:15.252Z,11
2019-05-12T08:52:17.405Z,10
2019-05-12T08:57:19.829Z,12
2019-05-12T09:02:24.020Z,11
2019-05-12T09:07:24.680Z,13
2019-05-12T09:12:27.105Z,10
2019-05-12T09:17:29.596Z,9
2019-05-12T09:22:34.078Z,9
2019-05-12T09:27:34.484Z,11
2019-05-12T09:32:39.058Z,8
2019-05-12T09:37:40.535Z,10
2019-05-12T09:42:43.927Z,11
2019-05-12T09:47:44.196Z,8
2019-05-12T09:52:49.391Z,7
2019-05-12T09:57:49.156Z,11
2019-05-12T10:02:58.816Z,7
2019-05-12T10:07:53.962Z,8
2019-05-12T10:12:56.415Z,7
2019-05-12T10:18:00.091Z,8
2019-05-12T10:23:01.297Z,9
2019-05-12T10:28:11.276Z,8
2019-05-12T10:33:06.224Z,9
2019-05-12T10:38:10.586Z,7
2019-05-12T10:43:11.041Z,5
2019-05-12T10:48:14.095Z,4
2019-05-12T10:53:17.893Z,6
2019-05-12T10:58:18.532Z,7
2019-05-12T11:03:20.830Z,5
2019-05-12T11:08:24.660Z,6
2019-05-12T11:13:25.674Z,5
2019-05-12T11:18:30.374Z,4
2019-05-12T11:23:30.570Z,6
2019-05-12T11:28:33.608Z,6
2019-05-12T11:33:35.466Z,3
2019-05-12T11:38:38.020Z,5
2019-05-12T11:43:40.451Z,5
2019-05-12T11:48:46.138Z,9
2019-05-12T11:53:45.216Z,3
2019-05-12T11:58:51.380Z,8
2019-05-12T12:03:50.116Z,5
2019-05-12T12:08:53.652Z,5
2019-05-12T12:13:54.954Z,5
2019-05-12T12:19:02.467Z,6
2019-05-12T12:23:59.921Z,4
2019-05-12T12:29:03.292Z,5
2019-05-12T12:34:04.987Z,2
2019-05-12T12:39:07.197Z,4
2019-05-12T12:44:09.614Z,3
2019-05-12T12:49:13.856Z,2
2019-05-12T12:54:14.535Z,3
2019-05-12T12:59:16.951Z,3
2019-05-12T13:04:19.368Z,3
2019-05-12T13:09:24.406Z,3
2019-05-12T13:14:28.416Z,7
2019-05-12T13:19:26.697Z,3
2019-05-12T13:24:29.221Z,4
2019-05-12T13:29:35.276Z,2
2019-05-12T13:34:38.377Z,5
2019-05-12T13:39:36.502Z,2
2019-05-12T13:44:40.728Z,2
2019-05-12T13:49:45.138Z,3
2019-05-12T13:54:43.835Z,5
2019-05-12T13:59:46.237Z,4
2019-05-12T14:04:48.655Z,3
2019-05-12T14:09:52.291Z,1
2019-05-12T14:14:53.544Z,2
2019-05-12T14:19:55.983Z,2
2019-05-12T14:25:01.869Z,4
2019-05-12T14:30:09.290Z,2
2019-05-12T14:35:04.255Z,2
2019-05-12T14:40:06.486Z,1
2019-05-12T14:45:08.271Z,1
2019-05-12T14:50:10.652Z,2
2019-05-12T14:55:13.801Z,3
2019-05-12T15:00:20.816Z,3
2019-05-12T15:05:17.966Z,2
2019-05-12T15:10:20.414Z,3
2019-05-12T15:15:24.222Z,4
2019-05-12T15:20:25.418Z,1
2019-05-12T15:25:29.185Z,3
2019-05-12T15:30:30.320Z,2
2019-05-12T15:35:34.340Z,2
2019-05-12T15:40:35.589Z,1
2019-05-12T15:45:37.463Z,3
2019-05-12T15:50:43.261Z,2
2019-05-12T15:55:43.440Z,2
2019-05-12T16:00:44.776Z,2
2019-05-12T16:05:47.256Z,2
2019-05-12T16:10:49.839Z,2
2019-05-12T16:15:55.620Z,3
2019-05-12T16:20:58.810Z,3
2019-05-12T16:26:01.236Z,3
2019-05-12T16:31:04.870Z,2
2019-05-12T16:36:06.468Z,3
2019-05-12T16:41:04.355Z,1
2019-05-12T16:46:06.797Z,3
2019-05-12T16:51:09.651Z,2
2019-05-12T16:56:11.630Z,1
2019-05-12T17:01:14.482Z,2
2019-05-12T17:06:16.516Z,2
2019-05-12T17:11:26.276Z,1
2019-05-12T17:16:21.501Z,1
2019-05-12T17:21:24.604Z,2
2019-05-12T17:26:26.289Z,4
2019-05-12T17:31:28.776Z,1
2019-05-12T17:36:31.205Z,2
2019-05-12T17:41:40.198Z,2
2019-05-12T17:46:37.794Z,3
2019-05-12T17:51:38.513Z,1
2019-05-12T17:56:40.972Z,2
2019-05-12T18:01:43.635Z,5
2019-05-12T18:06:46.042Z,2
2019-05-12T18:11:52.472Z,2
2019-05-12T18:16:53.447Z,3
2019-05-12T18:21:54.692Z,2
2019-05-12T18:27:02.095Z,3
2019-05-12T18:31:58.078Z,3
2019-05-12T18:37:00.421Z,2
2019-05-12T18:42:03.487Z,3
2019-05-12T18:47:05.577Z,2
2019-05-12T18:52:07.774Z,3
2019-05-12T18:57:10.221Z,5
2019-05-12T19:02:14.474Z,7
2019-05-12T19:07:15.359Z,3
2019-05-12T19:12:21.077Z,4
2019-05-12T19:17:19.958Z,2
2019-05-12T19:22:24.295Z,3
2019-05-12T19:27:24.833Z,2
2019-05-12T19:32:28.254Z,3
2019-05-12T19:37:30.119Z,2
2019-05-12T19:42:32.333Z,1
2019-05-12T19:47:38.214Z,2
2019-05-12T19:52:37.088Z,2
2019-05-12T19:57:39.563Z,2
2019-05-12T20:02:42.035Z,4
2019-05-12T20:07:44.781Z,2
2019-05-12T20:12:48.673Z,5
2019-05-12T20:17:49.235Z,2
2019-05-12T20:22:53.934Z,3
2019-05-12T20:27:55.614Z,3
2019-05-12T20:32:56.675Z,2
2019-05-12T20:37:59.031Z,2
2019-05-12T20:43:11.449Z,3
2019-05-12T20:48:04.173Z,2
2019-05-12T20:53:06.310Z,3
2019-05-12T20:58:08.780Z,5
2019-05-12T21:03:13.556Z,4
2019-05-12T21:08:15.333Z,3
2019-05-12T21:13:20.217Z,2
2019-05-12T21:18:18.674Z,1
2019-05-12T21:23:20.990Z,4
2019-05-12T21:28:23.937Z,2
2019-05-12T21:33:25.855Z,4
2019-05-12T21:38:29.654Z,1
2019-05-12T21:43:30.731Z,2
2019-05-12T21:48:33.986Z,4
2019-05-12T21:53:35.591Z,2
2019-05-12T21:58:42.950Z,3
2019-05-12T22:03:45.752Z,4
2019-05-12T22:08:44.187Z,2
2019-05-12T22:18:47.996Z,2
2019-05-12T22:23:51.092Z,2
2019-05-12T22:28:53.674Z,4
2019-05-12T22:33:56.303Z,3
2019-05-12T22:39:00.682Z,2
2019-05-12T22:43:59.988Z,3
2019-05-12T22:49:04.139Z,3
2019-05-12T22:54:06.709Z,1
2019-05-12T22:59:07.346Z,4
2019-05-12T23:04:09.776Z,2
2019-05-12T23:09:12.212Z,2
2019-05-12T23:14:20.453Z,1
2019-05-12T23:19:17.053Z,4
2019-05-12T23:24:19.689Z,5
2019-05-12T23:29:26.600Z,4
2019-05-12T23:34:24.407Z,2
2019-05-12T23:39:26.845Z,3
2019-05-12T23:44:29.287Z,3
2019-05-12T23:49:33.622Z,2
2019-05-12T23:54:34.407Z,2
2019-05-12T23:59:36.722Z,3
